sensor_id;sensor_type;location;lat;lon;timestamp;pressure;altitude;pressure_sealevel;temperature;humidity
44441;BME280;30146;52.268;20.944;2023-02-08T00:01:30;103033.30;;;1.73;63.42
44441;BME280;30146;52.268;20.944;2023-02-08T00:04:02;103038.83;;;1.73;63.57
44441;BME280;30146;52.268;20.944;2023-02-08T00:06:32;103042.89;;;1.73;63.57
44441;BME280;30146;52.268;20.944;2023-02-08T00:09:03;103045.89;;;1.73;63.51
44441;BME280;30146;52.268;20.944;2023-02-08T00:11:35;103051.84;;;1.73;63.72
44441;BME280;30146;52.268;20.944;2023-02-08T00:14:06;103052.90;;;1.74;63.67
44441;BME280;30146;52.268;20.944;2023-02-08T00:16:37;103051.15;;;1.73;63.52
44441;BME280;30146;52.268;20.944;2023-02-08T00:19:08;103048.69;;;1.72;63.72
44441;BME280;30146;52.268;20.944;2023-02-08T00:21:39;103050.02;;;1.72;63.60
44441;BME280;30146;52.268;20.944;2023-02-08T00:24:10;103048.79;;;1.71;63.68
44441;BME280;30146;52.268;20.944;2023-02-08T00:26:41;103050.27;;;1.70;63.63
44441;BME280;30146;52.268;20.944;2023-02-08T00:29:11;103049.20;;;1.69;63.53
44441;BME280;30146;52.268;20.944;2023-02-08T00:31:42;103049.10;;;1.68;63.54
44441;BME280;30146;52.268;20.944;2023-02-08T00:34:13;103048.92;;;1.68;63.70
44441;BME280;30146;52.268;20.944;2023-02-08T00:36:44;103054.64;;;1.68;63.59
44441;BME280;30146;52.268;20.944;2023-02-08T00:39:15;103050.55;;;1.67;63.88
44441;BME280;30146;52.268;20.944;2023-02-08T00:41:45;103052.06;;;1.67;63.57
44441;BME280;30146;52.268;20.944;2023-02-08T00:44:16;103054.02;;;1.68;63.82
44441;BME280;30146;52.268;20.944;2023-02-08T00:46:47;103053.60;;;1.70;63.85
44441;BME280;30146;52.268;20.944;2023-02-08T00:49:19;103057.59;;;1.71;63.75
44441;BME280;30146;52.268;20.944;2023-02-08T00:51:50;103056.34;;;1.73;63.94
44441;BME280;30146;52.268;20.944;2023-02-08T00:54:21;103058.16;;;1.72;63.77
44441;BME280;30146;52.268;20.944;2023-02-08T00:56:52;103057.54;;;1.73;63.70
44441;BME280;30146;52.268;20.944;2023-02-08T00:59:23;103053.64;;;1.72;63.85
44441;BME280;30146;52.268;20.944;2023-02-08T01:01:53;103057.53;;;1.73;63.81
44441;BME280;30146;52.268;20.944;2023-02-08T01:04:24;103060.02;;;1.72;63.67
44441;BME280;30146;52.268;20.944;2023-02-08T01:06:55;103059.84;;;1.72;63.71
44441;BME280;30146;52.268;20.944;2023-02-08T01:09:26;103061.79;;;1.71;63.46
44441;BME280;30146;52.268;20.944;2023-02-08T01:11:57;103062.38;;;1.70;63.72
44441;BME280;30146;52.268;20.944;2023-02-08T01:14:28;103060.70;;;1.70;63.62
44441;BME280;30146;52.268;20.944;2023-02-08T01:17:00;103061.27;;;1.71;63.97
44441;BME280;30146;52.268;20.944;2023-02-08T01:19:30;103061.02;;;1.72;63.91
44441;BME280;30146;52.268;20.944;2023-02-08T01:22:04;103063.02;;;1.71;63.80
44441;BME280;30146;52.268;20.944;2023-02-08T01:24:35;103064.52;;;1.69;63.56
44441;BME280;30146;52.268;20.944;2023-02-08T01:27:06;103063.23;;;1.65;63.60
44441;BME280;30146;52.268;20.944;2023-02-08T01:29:37;103059.16;;;1.63;63.72
44441;BME280;30146;52.268;20.944;2023-02-08T01:32:08;103060.27;;;1.62;63.69
44441;BME280;30146;52.268;20.944;2023-02-08T01:34:39;103062.19;;;1.60;63.63
44441;BME280;30146;52.268;20.944;2023-02-08T01:37:12;103062.79;;;1.59;63.84
44441;BME280;30146;52.268;20.944;2023-02-08T01:39:43;103066.16;;;1.57;63.52
44441;BME280;30146;52.268;20.944;2023-02-08T01:42:16;103063.98;;;1.54;63.72
44441;BME280;30146;52.268;20.944;2023-02-08T01:48:00;103059.20;;;1.53;64.02
44441;BME280;30146;52.268;20.944;2023-02-08T01:50:38;103061.11;;;1.52;63.94
44441;BME280;30146;52.268;20.944;2023-02-08T01:53:11;103061.02;;;1.51;63.77
44441;BME280;30146;52.268;20.944;2023-02-08T01:55:46;103065.95;;;1.49;64.01
44441;BME280;30146;52.268;20.944;2023-02-08T01:58:18;103061.52;;;1.48;64.07
44441;BME280;30146;52.268;20.944;2023-02-08T02:00:49;103060.56;;;1.49;64.25
44441;BME280;30146;52.268;20.944;2023-02-08T02:03:21;103062.66;;;1.50;64.06
44441;BME280;30146;52.268;20.944;2023-02-08T02:05:56;103065.05;;;1.50;64.22
44441;BME280;30146;52.268;20.944;2023-02-08T02:08:32;103067.73;;;1.48;63.95
44441;BME280;30146;52.268;20.944;2023-02-08T02:11:03;103072.30;;;1.46;63.90
44441;BME280;30146;52.268;20.944;2023-02-08T02:13:37;103076.77;;;1.45;63.88
44441;BME280;30146;52.268;20.944;2023-02-08T02:16:08;103072.67;;;1.44;63.89
44441;BME280;30146;52.268;20.944;2023-02-08T02:18:39;103078.02;;;1.44;64.06
44441;BME280;30146;52.268;20.944;2023-02-08T02:21:40;103082.69;;;1.42;63.96
44441;BME280;30146;52.268;20.944;2023-02-08T02:27:27;103079.27;;;1.40;64.11
44441;BME280;30146;52.268;20.944;2023-02-08T02:33:21;103092.88;;;1.39;64.07
44441;BME280;30146;52.268;20.944;2023-02-08T02:35:58;103096.95;;;1.39;64.35
44441;BME280;30146;52.268;20.944;2023-02-08T02:38:40;103095.98;;;1.40;64.33
44441;BME280;30146;52.268;20.944;2023-02-08T02:41:20;103094.71;;;1.41;64.43
44441;BME280;30146;52.268;20.944;2023-02-08T02:44:13;103098.05;;;1.41;64.34
44441;BME280;30146;52.268;20.944;2023-02-08T02:46:51;103095.91;;;1.41;64.43
44441;BME280;30146;52.268;20.944;2023-02-08T02:49:37;103100.38;;;1.43;64.46
44441;BME280;30146;52.268;20.944;2023-02-08T02:52:13;103099.52;;;1.42;64.20
44441;BME280;30146;52.268;20.944;2023-02-08T02:54:48;103109.00;;;1.43;64.27
44441;BME280;30146;52.268;20.944;2023-02-08T02:57:20;103110.27;;;1.42;64.32
44441;BME280;30146;52.268;20.944;2023-02-08T02:59:51;103109.06;;;1.41;64.24
44441;BME280;30146;52.268;20.944;2023-02-08T03:02:27;103109.57;;;1.41;64.31
44441;BME280;30146;52.268;20.944;2023-02-08T03:04:56;103105.27;;;1.41;64.32
44441;BME280;30146;52.268;20.944;2023-02-08T03:07:41;103103.80;;;1.39;64.33
44441;BME280;30146;52.268;20.944;2023-02-08T03:10:26;103102.76;;;1.38;64.32
44441;BME280;30146;52.268;20.944;2023-02-08T03:13:04;103103.57;;;1.38;64.38
44441;BME280;30146;52.268;20.944;2023-02-08T03:15:48;103108.55;;;1.39;64.41
44441;BME280;30146;52.268;20.944;2023-02-08T03:18:30;103109.41;;;1.39;64.42
44441;BME280;30146;52.268;20.944;2023-02-08T03:21:08;103115.28;;;1.39;64.44
44441;BME280;30146;52.268;20.944;2023-02-08T03:23:48;103114.11;;;1.39;64.33
44441;BME280;30146;52.268;20.944;2023-02-08T03:26:25;103110.88;;;1.39;64.35
44441;BME280;30146;52.268;20.944;2023-02-08T03:29:05;103111.39;;;1.36;64.20
44441;BME280;30146;52.268;20.944;2023-02-08T03:31:44;103112.66;;;1.35;64.25
44441;BME280;30146;52.268;20.944;2023-02-08T03:34:19;103120.16;;;1.34;64.28
44441;BME280;30146;52.268;20.944;2023-02-08T03:36:56;103122.84;;;1.34;64.36
44441;BME280;30146;52.268;20.944;2023-02-08T03:39:30;103126.69;;;1.33;64.39
44441;BME280;30146;52.268;20.944;2023-02-08T03:42:07;103127.30;;;1.35;64.33
44441;BME280;30146;52.268;20.944;2023-02-08T03:44:43;103125.58;;;1.34;64.32
44441;BME280;30146;52.268;20.944;2023-02-08T03:47:18;103128.77;;;1.34;64.30
44441;BME280;30146;52.268;20.944;2023-02-08T03:49:53;103129.34;;;1.35;64.19
44441;BME280;30146;52.268;20.944;2023-02-08T03:52:25;103130.81;;;1.34;64.51
44441;BME280;30146;52.268;20.944;2023-02-08T03:54:59;103129.39;;;1.36;64.46
44441;BME280;30146;52.268;20.944;2023-02-08T03:57:34;103129.81;;;1.37;64.32
44441;BME280;30146;52.268;20.944;2023-02-08T04:00:12;103129.55;;;1.38;64.49
44441;BME280;30146;52.268;20.944;2023-02-08T04:02:50;103128.94;;;1.39;64.40
44441;BME280;30146;52.268;20.944;2023-02-08T04:05:22;103129.36;;;1.42;64.53
44441;BME280;30146;52.268;20.944;2023-02-08T04:07:54;103129.94;;;1.43;64.40
44441;BME280;30146;52.268;20.944;2023-02-08T04:10:25;103132.48;;;1.43;64.29
44441;BME280;30146;52.268;20.944;2023-02-08T04:12:56;103134.40;;;1.44;64.41
44441;BME280;30146;52.268;20.944;2023-02-08T04:15:27;103133.48;;;1.46;64.62
44441;BME280;30146;52.268;20.944;2023-02-08T04:17:58;103132.94;;;1.48;64.65
44441;BME280;30146;52.268;20.944;2023-02-08T04:20:30;103136.61;;;1.49;64.68
44441;BME280;30146;52.268;20.944;2023-02-08T04:23:01;103136.23;;;1.51;64.60
44441;BME280;30146;52.268;20.944;2023-02-08T04:25:32;103132.55;;;1.49;64.28
44441;BME280;30146;52.268;20.944;2023-02-08T04:28:04;103134.63;;;1.48;64.19
44441;BME280;30146;52.268;20.944;2023-02-08T04:30:35;103136.80;;;1.47;64.31
44441;BME280;30146;52.268;20.944;2023-02-08T04:33:06;103135.81;;;1.48;64.39
44441;BME280;30146;52.268;20.944;2023-02-08T04:35:37;103141.59;;;1.49;64.38
44441;BME280;30146;52.268;20.944;2023-02-08T04:38:08;103143.48;;;1.49;64.42
44441;BME280;30146;52.268;20.944;2023-02-08T04:40:39;103144.05;;;1.50;64.31
44441;BME280;30146;52.268;20.944;2023-02-08T04:43:10;103141.27;;;1.49;64.26
44441;BME280;30146;52.268;20.944;2023-02-08T04:45:41;103141.57;;;1.48;64.26
44441;BME280;30146;52.268;20.944;2023-02-08T04:48:12;103148.36;;;1.48;64.25
44441;BME280;30146;52.268;20.944;2023-02-08T04:50:46;103151.08;;;1.47;64.24
44441;BME280;30146;52.268;20.944;2023-02-08T04:53:17;103147.87;;;1.44;64.27
44441;BME280;30146;52.268;20.944;2023-02-08T04:55:48;103146.27;;;1.43;64.37
44441;BME280;30146;52.268;20.944;2023-02-08T04:58:19;103141.65;;;1.42;64.15
44441;BME280;30146;52.268;20.944;2023-02-08T05:00:50;103144.42;;;1.39;64.36
44441;BME280;30146;52.268;20.944;2023-02-08T05:03:21;103145.85;;;1.35;64.21
44441;BME280;30146;52.268;20.944;2023-02-08T05:05:57;103145.06;;;1.33;64.19
44441;BME280;30146;52.268;20.944;2023-02-08T05:08:28;103147.20;;;1.32;64.22
44441;BME280;30146;52.268;20.944;2023-02-08T05:10:59;103146.29;;;1.31;64.40
44441;BME280;30146;52.268;20.944;2023-02-08T05:13:30;103155.11;;;1.32;64.28
44441;BME280;30146;52.268;20.944;2023-02-08T05:16:01;103154.63;;;1.33;64.56
44441;BME280;30146;52.268;20.944;2023-02-08T05:18:32;103160.45;;;1.34;64.64
44441;BME280;30146;52.268;20.944;2023-02-08T05:21:02;103156.21;;;1.34;64.73
44441;BME280;30146;52.268;20.944;2023-02-08T05:23:33;103159.92;;;1.34;64.53
44441;BME280;30146;52.268;20.944;2023-02-08T05:26:07;103165.64;;;1.34;64.64
44441;BME280;30146;52.268;20.944;2023-02-08T05:28:38;103170.84;;;1.33;64.46
44441;BME280;30146;52.268;20.944;2023-02-08T05:31:13;103172.61;;;1.32;64.46
44441;BME280;30146;52.268;20.944;2023-02-08T05:33:44;103168.71;;;1.29;64.47
44441;BME280;30146;52.268;20.944;2023-02-08T05:36:15;103177.09;;;1.27;64.47
44441;BME280;30146;52.268;20.944;2023-02-08T05:38:46;103178.21;;;1.26;65.03
44441;BME280;30146;52.268;20.944;2023-02-08T05:41:17;103180.91;;;1.26;64.67
44441;BME280;30146;52.268;20.944;2023-02-08T05:43:48;103183.42;;;1.26;64.81
44441;BME280;30146;52.268;20.944;2023-02-08T05:46:18;103183.77;;;1.22;64.70
44441;BME280;30146;52.268;20.944;2023-02-08T05:48:49;103183.45;;;1.19;64.73
44441;BME280;30146;52.268;20.944;2023-02-08T05:51:20;103189.98;;;1.19;64.94
44441;BME280;30146;52.268;20.944;2023-02-08T05:53:51;103191.27;;;1.20;65.06
44441;BME280;30146;52.268;20.944;2023-02-08T05:56:22;103192.00;;;1.21;65.07
44441;BME280;30146;52.268;20.944;2023-02-08T05:58:53;103191.92;;;1.22;65.16
44441;BME280;30146;52.268;20.944;2023-02-08T06:01:24;103199.84;;;1.25;65.04
44441;BME280;30146;52.268;20.944;2023-02-08T06:03:55;103199.23;;;1.25;65.16
44441;BME280;30146;52.268;20.944;2023-02-08T06:06:28;103204.70;;;1.26;65.18
44441;BME280;30146;52.268;20.944;2023-02-08T06:08:59;103210.45;;;1.29;65.10
44441;BME280;30146;52.268;20.944;2023-02-08T06:11:29;103212.77;;;1.30;65.31
44441;BME280;30146;52.268;20.944;2023-02-08T06:14:00;103210.04;;;1.32;65.35
44441;BME280;30146;52.268;20.944;2023-02-08T06:16:31;103211.58;;;1.32;65.21
44441;BME280;30146;52.268;20.944;2023-02-08T06:19:02;103216.59;;;1.34;65.43
44441;BME280;30146;52.268;20.944;2023-02-08T06:21:33;103217.80;;;1.37;65.19
44441;BME280;30146;52.268;20.944;2023-02-08T06:24:04;103215.11;;;1.38;65.49
44441;BME280;30146;52.268;20.944;2023-02-08T06:26:36;103215.72;;;1.39;65.23
44441;BME280;30146;52.268;20.944;2023-02-08T06:29:07;103217.11;;;1.39;65.22
44441;BME280;30146;52.268;20.944;2023-02-08T06:31:38;103218.13;;;1.40;65.23
44441;BME280;30146;52.268;20.944;2023-02-08T06:34:09;103218.16;;;1.42;65.38
44441;BME280;30146;52.268;20.944;2023-02-08T06:36:39;103220.31;;;1.44;65.18
44441;BME280;30146;52.268;20.944;2023-02-08T06:39:10;103224.30;;;1.43;64.92
44441;BME280;30146;52.268;20.944;2023-02-08T06:41:41;103227.11;;;1.40;64.84
44441;BME280;30146;52.268;20.944;2023-02-08T06:44:12;103228.13;;;1.40;64.89
44441;BME280;30146;52.268;20.944;2023-02-08T06:46:43;103232.48;;;1.42;65.12
44441;BME280;30146;52.268;20.944;2023-02-08T06:49:13;103231.55;;;1.43;64.83
44441;BME280;30146;52.268;20.944;2023-02-08T06:51:45;103238.59;;;1.45;65.00
44441;BME280;30146;52.268;20.944;2023-02-08T06:54:16;103237.11;;;1.45;65.12
44441;BME280;30146;52.268;20.944;2023-02-08T06:56:47;103241.25;;;1.49;65.13
44441;BME280;30146;52.268;20.944;2023-02-08T06:59:18;103244.84;;;1.52;65.32
44441;BME280;30146;52.268;20.944;2023-02-08T07:01:49;103247.34;;;1.56;65.36
44441;BME280;30146;52.268;20.944;2023-02-08T07:04:19;103257.00;;;1.62;65.39
44441;BME280;30146;52.268;20.944;2023-02-08T07:06:50;103257.25;;;1.65;65.61
44441;BME280;30146;52.268;20.944;2023-02-08T07:09:22;103261.42;;;1.66;65.19
44441;BME280;30146;52.268;20.944;2023-02-08T07:11:53;103263.98;;;1.69;65.20
44441;BME280;30146;52.268;20.944;2023-02-08T07:14:24;103269.92;;;1.69;65.19
44441;BME280;30146;52.268;20.944;2023-02-08T07:16:54;103271.45;;;1.65;64.70
44441;BME280;30146;52.268;20.944;2023-02-08T07:19:26;103281.73;;;1.63;64.66
44441;BME280;30146;52.268;20.944;2023-02-08T07:21:56;103278.55;;;1.60;64.82
44441;BME280;30146;52.268;20.944;2023-02-08T07:24:36;103283.83;;;1.61;64.95
44441;BME280;30146;52.268;20.944;2023-02-08T07:27:09;103282.61;;;1.63;64.99
44441;BME280;30146;52.268;20.944;2023-02-08T07:29:40;103275.95;;;1.64;64.99
44441;BME280;30146;52.268;20.944;2023-02-08T07:32:11;103276.20;;;1.65;64.98
44441;BME280;30146;52.268;20.944;2023-02-08T07:34:42;103280.67;;;1.65;65.08
44441;BME280;30146;52.268;20.944;2023-02-08T07:37:13;103279.73;;;1.63;64.90
44441;BME280;30146;52.268;20.944;2023-02-08T07:39:44;103276.81;;;1.60;64.79
44441;BME280;30146;52.268;20.944;2023-02-08T07:42:16;103276.81;;;1.56;64.59
44441;BME280;30146;52.268;20.944;2023-02-08T07:44:55;103273.23;;;1.50;64.62
44441;BME280;30146;52.268;20.944;2023-02-08T07:47:28;103274.59;;;1.48;64.71
44441;BME280;30146;52.268;20.944;2023-02-08T07:49:59;103271.39;;;1.48;64.84
44441;BME280;30146;52.268;20.944;2023-02-08T07:52:29;103271.76;;;1.51;64.91
44441;BME280;30146;52.268;20.944;2023-02-08T07:55:00;103274.45;;;1.53;65.11
44441;BME280;30146;52.268;20.944;2023-02-08T07:57:31;103276.34;;;1.53;64.93
44441;BME280;30146;52.268;20.944;2023-02-08T08:00:02;103276.00;;;1.51;64.83
44441;BME280;30146;52.268;20.944;2023-02-08T08:02:40;103275.89;;;1.50;64.57
44441;BME280;30146;52.268;20.944;2023-02-08T08:05:11;103276.30;;;1.46;64.72
44441;BME280;30146;52.268;20.944;2023-02-08T08:07:42;103275.94;;;1.46;64.74
44441;BME280;30146;52.268;20.944;2023-02-08T08:10:13;103285.60;;;1.47;64.78
44441;BME280;30146;52.268;20.944;2023-02-08T08:12:44;103284.08;;;1.47;64.94
44441;BME280;30146;52.268;20.944;2023-02-08T08:15:21;103285.19;;;1.48;64.73
44441;BME280;30146;52.268;20.944;2023-02-08T08:17:52;103284.67;;;1.50;64.79
44441;BME280;30146;52.268;20.944;2023-02-08T08:20:24;103286.76;;;1.53;65.08
44441;BME280;30146;52.268;20.944;2023-02-08T08:22:55;103286.21;;;1.55;64.78
44441;BME280;30146;52.268;20.944;2023-02-08T08:25:26;103284.81;;;1.57;64.77
44441;BME280;30146;52.268;20.944;2023-02-08T08:27:57;103286.22;;;1.55;64.82
44441;BME280;30146;52.268;20.944;2023-02-08T08:30:30;103285.35;;;1.57;65.09
44441;BME280;30146;52.268;20.944;2023-02-08T08:33:01;103289.08;;;1.57;64.93
44441;BME280;30146;52.268;20.944;2023-02-08T08:35:32;103288.38;;;1.57;64.63
44441;BME280;30146;52.268;20.944;2023-02-08T08:38:03;103291.45;;;1.53;64.73
44441;BME280;30146;52.268;20.944;2023-02-08T08:40:33;103295.34;;;1.49;64.56
44441;BME280;30146;52.268;20.944;2023-02-08T08:43:05;103294.14;;;1.44;64.69
44441;BME280;30146;52.268;20.944;2023-02-08T08:45:36;103294.42;;;1.43;64.87
44441;BME280;30146;52.268;20.944;2023-02-08T08:48:08;103295.27;;;1.45;65.02
44441;BME280;30146;52.268;20.944;2023-02-08T08:50:39;103298.97;;;1.47;64.90
44441;BME280;30146;52.268;20.944;2023-02-08T08:53:11;103296.83;;;1.48;64.94
44441;BME280;30146;52.268;20.944;2023-02-08T08:55:42;103301.45;;;1.49;65.03
44441;BME280;30146;52.268;20.944;2023-02-08T08:58:14;103310.05;;;1.49;65.07
44441;BME280;30146;52.268;20.944;2023-02-08T09:00:44;103310.79;;;1.50;65.17
44441;BME280;30146;52.268;20.944;2023-02-08T09:03:15;103308.77;;;1.52;65.09
44441;BME280;30146;52.268;20.944;2023-02-08T09:05:47;103307.83;;;1.56;65.18
44441;BME280;30146;52.268;20.944;2023-02-08T09:08:18;103312.51;;;1.57;65.32
44441;BME280;30146;52.268;20.944;2023-02-08T09:10:49;103308.98;;;1.60;65.38
44441;BME280;30146;52.268;20.944;2023-02-08T09:13:20;103309.54;;;1.63;65.22
44441;BME280;30146;52.268;20.944;2023-02-08T09:15:50;103306.72;;;1.63;65.42
44441;BME280;30146;52.268;20.944;2023-02-08T09:18:21;103303.95;;;1.64;65.39
44441;BME280;30146;52.268;20.944;2023-02-08T09:20:52;103303.52;;;1.68;65.22
44441;BME280;30146;52.268;20.944;2023-02-08T09:23:23;103304.90;;;1.68;65.32
44441;BME280;30146;52.268;20.944;2023-02-08T09:25:54;103307.64;;;1.71;65.49
44441;BME280;30146;52.268;20.944;2023-02-08T09:28:25;103309.08;;;1.77;65.46
44441;BME280;30146;52.268;20.944;2023-02-08T09:30:55;103314.14;;;1.81;65.76
44441;BME280;30146;52.268;20.944;2023-02-08T09:33:27;103314.20;;;1.82;65.07
44441;BME280;30146;52.268;20.944;2023-02-08T09:35:58;103314.32;;;1.84;65.09
44441;BME280;30146;52.268;20.944;2023-02-08T09:38:29;103310.91;;;1.86;65.14
44441;BME280;30146;52.268;20.944;2023-02-08T09:41:16;103311.13;;;1.89;65.11
44441;BME280;30146;52.268;20.944;2023-02-08T09:43:55;103312.45;;;1.91;64.94
44441;BME280;30146;52.268;20.944;2023-02-08T09:46:32;103315.29;;;1.90;65.09
44441;BME280;30146;52.268;20.944;2023-02-08T09:49:12;103316.14;;;1.95;65.00
44441;BME280;30146;52.268;20.944;2023-02-08T09:51:49;103309.39;;;1.97;64.99
44441;BME280;30146;52.268;20.944;2023-02-08T09:54:24;103305.47;;;2.01;65.21
44441;BME280;30146;52.268;20.944;2023-02-08T09:56:56;103309.27;;;2.07;65.17
44441;BME280;30146;52.268;20.944;2023-02-08T09:59:29;103311.75;;;2.04;64.76
44441;BME280;30146;52.268;20.944;2023-02-08T10:02:21;103311.23;;;2.06;65.01
44441;BME280;30146;52.268;20.944;2023-02-08T10:04:58;103314.86;;;2.14;65.23
44441;BME280;30146;52.268;20.944;2023-02-08T10:07:31;103317.23;;;2.24;65.34
44441;BME280;30146;52.268;20.944;2023-02-08T10:10:04;103319.11;;;2.34;65.32
44441;BME280;30146;52.268;20.944;2023-02-08T10:12:42;103316.11;;;2.36;64.86
44441;BME280;30146;52.268;20.944;2023-02-08T10:15:29;103316.24;;;2.36;64.17
44441;BME280;30146;52.268;20.944;2023-02-08T10:18:19;103312.98;;;2.30;63.99
44441;BME280;30146;52.268;20.944;2023-02-08T10:21:06;103315.02;;;2.30;64.29
44441;BME280;30146;52.268;20.944;2023-02-08T10:23:56;103312.20;;;2.31;64.02
44441;BME280;30146;52.268;20.944;2023-02-08T10:26:36;103314.56;;;2.29;64.09
44441;BME280;30146;52.268;20.944;2023-02-08T10:29:37;103314.24;;;2.29;63.93
44441;BME280;30146;52.268;20.944;2023-02-08T10:32:24;103315.17;;;2.28;63.66
44441;BME280;30146;52.268;20.944;2023-02-08T10:35:08;103313.25;;;2.25;63.49
44441;BME280;30146;52.268;20.944;2023-02-08T10:37:41;103313.95;;;2.23;63.42
44441;BME280;30146;52.268;20.944;2023-02-08T10:40:28;103313.64;;;2.18;63.28
44441;BME280;30146;52.268;20.944;2023-02-08T10:43:13;103312.48;;;2.14;63.20
44441;BME280;30146;52.268;20.944;2023-02-08T10:45:52;103313.77;;;2.13;63.34
44441;BME280;30146;52.268;20.944;2023-02-08T10:48:34;103307.42;;;2.12;63.06
44441;BME280;30146;52.268;20.944;2023-02-08T10:51:10;103305.42;;;2.10;63.18
44441;BME280;30146;52.268;20.944;2023-02-08T10:53:42;103298.99;;;2.09;63.21
44441;BME280;30146;52.268;20.944;2023-02-08T10:56:23;103300.45;;;2.14;63.55
44441;BME280;30146;52.268;20.944;2023-02-08T10:58:57;103297.95;;;2.19;63.50
44441;BME280;30146;52.268;20.944;2023-02-08T11:01:29;103291.92;;;2.21;63.06
44441;BME280;30146;52.268;20.944;2023-02-08T11:04:04;103291.15;;;2.25;63.48
44441;BME280;30146;52.268;20.944;2023-02-08T11:06:36;103292.27;;;2.31;63.39
44441;BME280;30146;52.268;20.944;2023-02-08T11:09:11;103287.52;;;2.33;63.25
44441;BME280;30146;52.268;20.944;2023-02-08T11:11:49;103287.67;;;2.37;62.96
44441;BME280;30146;52.268;20.944;2023-02-08T11:14:24;103289.73;;;2.41;62.73
44441;BME280;30146;52.268;20.944;2023-02-08T11:17:25;103292.83;;;2.41;62.58
44441;BME280;30146;52.268;20.944;2023-02-08T11:19:57;103292.92;;;2.40;62.43
44441;BME280;30146;52.268;20.944;2023-02-08T11:22:29;103291.72;;;2.33;61.80
44441;BME280;30146;52.268;20.944;2023-02-08T11:25:06;103288.42;;;2.25;61.54
44441;BME280;30146;52.268;20.944;2023-02-08T11:27:39;103291.39;;;2.21;61.78
44441;BME280;30146;52.268;20.944;2023-02-08T11:30:22;103291.89;;;2.23;61.83
44441;BME280;30146;52.268;20.944;2023-02-08T11:33:17;103290.52;;;2.25;62.04
44441;BME280;30146;52.268;20.944;2023-02-08T11:35:56;103289.83;;;2.25;61.88
44441;BME280;30146;52.268;20.944;2023-02-08T11:38:28;103288.59;;;2.25;61.74
44441;BME280;30146;52.268;20.944;2023-02-08T11:41:01;103286.95;;;2.25;61.74
44441;BME280;30146;52.268;20.944;2023-02-08T11:43:33;103289.83;;;2.23;61.70
44441;BME280;30146;52.268;20.944;2023-02-08T11:46:05;103287.30;;;2.21;61.45
44441;BME280;30146;52.268;20.944;2023-02-08T11:48:41;103284.86;;;2.18;61.23
44441;BME280;30146;52.268;20.944;2023-02-08T11:51:21;103286.19;;;2.12;61.02
44441;BME280;30146;52.268;20.944;2023-02-08T11:53:54;103284.71;;;2.10;60.95
44441;BME280;30146;52.268;20.944;2023-02-08T11:56:27;103285.30;;;2.09;60.94
44441;BME280;30146;52.268;20.944;2023-02-08T11:59:03;103282.64;;;2.07;60.73
44441;BME280;30146;52.268;20.944;2023-02-08T12:01:37;103284.63;;;2.09;60.60
44441;BME280;30146;52.268;20.944;2023-02-08T12:04:11;103280.39;;;2.11;60.57
44441;BME280;30146;52.268;20.944;2023-02-08T12:10:04;103284.11;;;2.21;60.30
44441;BME280;30146;52.268;20.944;2023-02-08T12:12:51;103284.17;;;2.24;60.37
44441;BME280;30146;52.268;20.944;2023-02-08T12:15:30;103282.30;;;2.28;60.03
44441;BME280;30146;52.268;20.944;2023-02-08T12:18:37;103276.41;;;2.34;59.98
44441;BME280;30146;52.268;20.944;2023-02-08T12:21:19;103282.85;;;2.36;59.66
44441;BME280;30146;52.268;20.944;2023-02-08T12:23:53;103283.36;;;2.36;59.01
44441;BME280;30146;52.268;20.944;2023-02-08T12:26:43;103286.89;;;2.39;59.26
44441;BME280;30146;52.268;20.944;2023-02-08T12:29:31;103288.70;;;2.38;58.99
44441;BME280;30146;52.268;20.944;2023-02-08T12:32:32;103283.68;;;2.39;58.68
44441;BME280;30146;52.268;20.944;2023-02-08T12:41:58;103268.30;;;2.53;58.91
44441;BME280;30146;52.268;20.944;2023-02-08T12:44:43;103264.92;;;2.65;58.99
44441;BME280;30146;52.268;20.944;2023-02-08T12:47:32;103258.41;;;2.76;58.76
44441;BME280;30146;52.268;20.944;2023-02-08T12:50:13;103261.35;;;2.81;58.09
44441;BME280;30146;52.268;20.944;2023-02-08T12:52:50;103259.38;;;2.82;57.48
44441;BME280;30146;52.268;20.944;2023-02-08T12:55:28;103261.56;;;2.85;57.36
44441;BME280;30146;52.268;20.944;2023-02-08T12:58:04;103256.41;;;2.88;56.86
44441;BME280;30146;52.268;20.944;2023-02-08T13:00:38;103251.88;;;2.91;56.79
44441;BME280;30146;52.268;20.944;2023-02-08T13:03:21;103248.41;;;2.92;56.51
44441;BME280;30146;52.268;20.944;2023-02-08T13:05:55;103241.64;;;2.95;56.66
44441;BME280;30146;52.268;20.944;2023-02-08T13:08:35;103240.55;;;2.98;56.70
44441;BME280;30146;52.268;20.944;2023-02-08T13:11:13;103242.11;;;3.01;56.36
44441;BME280;30146;52.268;20.944;2023-02-08T13:13:56;103235.40;;;3.02;56.42
44441;BME280;30146;52.268;20.944;2023-02-08T13:16:34;103236.70;;;3.04;56.30
44441;BME280;30146;52.268;20.944;2023-02-08T13:19:22;103232.41;;;3.05;56.11
44441;BME280;30146;52.268;20.944;2023-02-08T13:21:55;103231.48;;;3.06;56.03
44441;BME280;30146;52.268;20.944;2023-02-08T13:24:32;103231.56;;;3.11;55.96
44441;BME280;30146;52.268;20.944;2023-02-08T13:27:04;103229.71;;;3.13;55.88
44441;BME280;30146;52.268;20.944;2023-02-08T13:29:38;103221.78;;;3.16;55.93
44441;BME280;30146;52.268;20.944;2023-02-08T13:32:16;103223.13;;;3.21;55.89
44441;BME280;30146;52.268;20.944;2023-02-08T13:34:51;103212.67;;;3.21;55.35
44441;BME280;30146;52.268;20.944;2023-02-08T13:37:26;103213.46;;;3.23;55.68
44441;BME280;30146;52.268;20.944;2023-02-08T13:40:03;103218.52;;;3.20;55.40
44441;BME280;30146;52.268;20.944;2023-02-08T13:42:37;103222.26;;;3.18;55.15
44441;BME280;30146;52.268;20.944;2023-02-08T13:45:24;103215.98;;;3.18;55.49
44441;BME280;30146;52.268;20.944;2023-02-08T13:47:59;103210.83;;;3.19;55.43